Time,TemperatureF,DewpointF,PressureIn,WindDirection,WindDirectionDegrees,WindSpeedMPH,WindSpeedGustMPH,Humidity,HourlyPrecipIn,Conditions,Clouds,dailyrainin,SoftwareType,DateUTC
2013-02-21 00:00:00,25.2,4.7,30.11,NNW,327,17.3,17.3,41,0.00,CLR,OVC,0.00,WeatherDisplay:10.37,2013-02-21 05:00:00,
2013-02-21 00:01:00,25.2,4.7,30.11,NNW,340,17.3,17.3,41,0.00,CLR,OVC,0.00,WeatherDisplay:10.37,2013-02-21 05:01:00,
2013-02-21 00:06:00,25.2,4.7,30.11,NW,320,9.2,9.2,41,0.00,CLR,OVC,0.00,WeatherDisplay:10.37,2013-02-21 05:06:00,
2013-02-21 00:11:00,25.2,4.7,30.11,West,260,6.9,6.9,41,0.00,CLR,OVC,0.00,WeatherDisplay:10.37,2013-02-21 05:11:00,
2013-02-21 00:16:00,25.2,4.2,30.11,NW,325,15.0,15.0,40,0.00,CLR,OVC,0.00,WeatherDisplay:10.37,2013-02-21 05:16:00,
2013-02-21 00:21:00,25.2,4.2,30.11,NW,324,17.3,17.3,40,0.00,CLR,OVC,0.00,WeatherDisplay:10.37,2013-02-21 05:21:00,
2013-02-21 00:26:00,25.2,4.2,30.11,North,9,15.0,15.0,40,0.00,CLR,OVC,0.00,WeatherDisplay:10.37,2013-02-21 05:26:00,
2013-02-21 00:31:00,25.2,4.2,30.11,WSW,256,6.9,6.9,40,0.00,CLR,OVC,0.00,WeatherDisplay:10.37,2013-02-21 05:31:00,
2013-02-21 00:36:00,25.0,4.0,30.11,NW,304,10.4,10.4,40,0.00,CLR,OVC,0.00,WeatherDisplay:10.37,2013-02-21 05:36:00,
2013-02-21 00:41:00,25.0,4.0,30.11,NW,314,11.5,11.5,40,0.00,CLR,OVC,0.00,WeatherDisplay:10.37,2013-02-21 05:41:00,
2013-02-21 00:46:00,25.0,4.0,30.11,NNW,333,13.8,13.8,40,0.00,CLR,OVC,0.00,WeatherDisplay:10.37,2013-02-21 05:46:00,
2013-02-21 00:51:00,25.0,4.0,30.11,NW,315,4.6,4.6,40,0.00,CLR,OVC,0.00,WeatherDisplay:10.37,2013-02-21 05:51:00,
2013-02-21 00:53:00,25.0,4.0,30.11,WNW,285,4.6,4.8,40,0.00,CLR,OVC,0.00,WeatherDisplay:10.37,2013-02-21 05:53:00,
2013-02-21 00:58:00,24.8,4.4,30.11,NNW,336,8.1,8.1,41,0.00,CLR,OVC,0.00,WeatherDisplay:10.37,2013-02-21 05:58:00,
2013-02-21 01:03:00,24.8,4.4,30.11,NW,315,8.1,8.1,41,0.00,CLR,OVC,0.00,WeatherDisplay:10.37,2013-02-21 06:03:00,
2013-02-21 01:08:00,24.6,4.2,30.11,NW,307,6.9,6.9,41,0.00,CLR,OVC,0.00,WeatherDisplay:10.37,2013-02-21 06:08:00,
2013-02-21 01:13:00,24.6,4.2,30.11,NW,315,5.8,5.8,41,0.00,CLR,OVC,0.00,WeatherDisplay:10.37,2013-02-21 06:13:00,
2013-02-21 01:18:00,24.6,4.2,30.11,West,278,6.9,6.9,41,0.00,CLR,OVC,0.00,WeatherDisplay:10.37,2013-02-21 06:18:00,
2013-02-21 01:23:00,24.4,4.6,30.11,NW,324,9.2,9.2,42,0.00,CLR,OVC,0.00,WeatherDisplay:10.37,2013-02-21 06:23:00,
2013-02-21 01:28:00,24.4,4.6,30.11,NNW,328,4.6,4.6,42,0.00,CLR,OVC,0.00,WeatherDisplay:10.37,2013-02-21 06:28:00,
2013-02-21 01:33:00,24.4,4.6,30.11,WNW,299,4.6,4.6,42,0.00,CLR,OVC,0.00,WeatherDisplay:10.37,2013-02-21 06:33:00,
2013-02-21 01:38:00,24.4,4.6,30.11,WNW,286,4.6,4.6,42,0.00,CLR,OVC,0.00,WeatherDisplay:10.37,2013-02-21 06:38:00,
2013-02-21 01:43:00,24.4,4.6,30.11,NNW,334,8.1,8.1,42,0.00,CLR,OVC,0.00,WeatherDisplay:10.37,2013-02-21 06:43:00,
2013-02-21 01:48:00,24.3,4.9,30.11,NW,318,6.9,6.9,43,0.00,CLR,OVC,0.00,WeatherDisplay:10.37,2013-02-21 06:48:00,
2013-02-21 01:53:00,24.3,4.9,30.11,NNW,341,5.8,5.8,43,0.00,CLR,OVC,0.00,WeatherDisplay:10.37,2013-02-21 06:53:00,
2013-02-21 01:58:00,24.3,4.9,30.11,NW,316,6.9,6.9,43,0.00,CLR,OVC,0.00,WeatherDisplay:10.37,2013-02-21 06:58:00,
2013-02-21 02:03:00,24.3,5.4,30.11,NW,318,8.2,8.2,44,0.00,CLR,OVC,0.00,WeatherDisplay:10.37,2013-02-21 07:03:00,
2013-02-21 02:08:00,24.1,5.8,30.11,NNW,336,7.2,7.2,45,0.00,CLR,OVC,0.00,WeatherDisplay:10.37,2013-02-21 07:08:00,
2013-02-21 02:13:00,24.1,5.8,30.08,NW,310,8.1,8.1,45,0.00,CLR,OVC,0.00,WeatherDisplay:10.37,2013-02-21 07:13:00,
2013-02-21 02:18:00,24.1,5.8,30.08,NE,44,4.6,4.6,45,0.00,CLR,OVC,0.00,WeatherDisplay:10.37,2013-02-21 07:18:00,
2013-02-21 02:23:00,24.1,5.8,30.08,NNW,331,5.8,5.8,45,0.00,CLR,OVC,0.00,WeatherDisplay:10.37,2013-02-21 07:23:00,
2013-02-21 02:28:00,24.3,5.9,30.08,WNW,292,4.6,4.6,45,0.00,CLR,OVC,0.00,WeatherDisplay:10.37,2013-02-21 07:28:00,
2013-02-21 02:33:00,24.1,5.8,30.08,West,274,4.1,4.1,45,0.00,CLR,OVC,0.00,WeatherDisplay:10.37,2013-02-21 07:33:00,
2013-02-21 02:38:00,24.1,5.8,30.08,WNW,284,4.6,4.6,45,0.00,CLR,OVC,0.00,WeatherDisplay:10.37,2013-02-21 07:38:00,
2013-02-21 02:43:00,24.1,5.8,30.08,North,357,0.0,2.4,45,0.00,CLR,OVC,0.00,WeatherDisplay:10.37,2013-02-21 07:43:00,
2013-02-21 02:48:00,24.1,5.8,30.08,SW,235,4.6,4.6,45,0.00,CLR,OVC,0.00,WeatherDisplay:10.37,2013-02-21 07:48:00,
2013-02-21 02:53:00,24.1,5.8,30.08,NNW,327,4.6,4.6,45,0.00,CLR,OVC,0.00,WeatherDisplay:10.37,2013-02-21 07:53:00,
2013-02-21 02:58:00,24.1,5.8,30.08,WNW,302,3.5,3.5,45,0.00,CLR,OVC,0.00,WeatherDisplay:10.37,2013-02-21 07:58:00,
2013-02-21 03:03:00,24.1,5.8,30.08,NW,319,4.6,4.6,45,0.00,CLR,OVC,0.00,WeatherDisplay:10.37,2013-02-21 08:03:00,
2013-02-21 03:08:00,23.9,6.1,30.08,NNW,329,4.6,4.6,46,0.00,CLR,OVC,0.00,WeatherDisplay:10.37,2013-02-21 08:08:00,
2013-02-21 03:13:00,23.9,6.1,30.08,SW,219,3.5,0.0,46,0.00,CLR,OVC,0.00,WeatherDisplay:10.37,2013-02-21 08:13:00,
2013-02-21 03:18:00,23.9,6.1,30.08,NNW,333,5.8,0.0,46,0.00,CLR,OVC,0.00,WeatherDisplay:10.37,2013-02-21 08:18:00,
2013-02-21 03:23:00,23.9,6.1,30.08,NNW,342,5.8,5.8,46,0.00,CLR,OVC,0.00,WeatherDisplay:10.37,2013-02-21 08:23:00,
2013-02-21 03:28:00,23.9,5.6,30.08,NW,317,8.1,8.1,45,0.00,CLR,OVC,0.00,WeatherDisplay:10.37,2013-02-21 08:28:00,
2013-02-21 03:33:00,23.9,5.6,30.08,West,279,6.9,6.9,45,0.00,CLR,OVC,0.00,WeatherDisplay:10.37,2013-02-21 08:33:00,
2013-02-21 03:38:00,23.9,5.6,30.08,North,353,9.3,9.3,45,0.00,CLR,OVC,0.00,WeatherDisplay:10.37,2013-02-21 08:38:00,
2013-02-21 03:43:00,24.1,5.8,30.08,NW,316,6.9,6.9,45,0.00,CLR,OVC,0.00,WeatherDisplay:10.37,2013-02-21 08:43:00,
2013-02-21 03:48:00,24.1,5.8,30.08,West,280,6.9,6.9,45,0.00,CLR,OVC,0.00,WeatherDisplay:10.37,2013-02-21 08:48:00,
2013-02-21 03:53:00,24.1,5.8,30.08,WSW,252,9.2,9.2,45,0.00,CLR,OVC,0.00,WeatherDisplay:10.37,2013-02-21 08:53:00,
2013-02-21 03:58:00,24.1,5.8,30.11,NNW,330,11.5,11.5,45,0.00,CLR,OVC,0.00,WeatherDisplay:10.37,2013-02-21 08:58:00,
2013-02-21 04:03:00,23.9,5.6,30.11,NW,321,5.8,5.8,45,0.00,CLR,OVC,0.00,WeatherDisplay:10.37,2013-02-21 09:03:00,
2013-02-21 04:08:00,23.9,5.6,30.11,West,260,6.7,6.7,45,0.00,CLR,OVC,0.00,WeatherDisplay:10.37,2013-02-21 09:08:00,
2013-02-21 04:13:00,23.9,5.6,30.11,NW,304,3.5,3.5,45,0.00,CLR,OVC,0.00,WeatherDisplay:10.37,2013-02-21 09:13:00,
2013-02-21 04:18:00,23.9,5.6,30.11,NNW,330,5.7,5.7,45,0.00,CLR,OVC,0.00,WeatherDisplay:10.37,2013-02-21 09:18:00,
2013-02-21 04:23:00,23.7,5.4,30.11,NW,322,5.8,5.8,45,0.00,CLR,OVC,0.00,WeatherDisplay:10.37,2013-02-21 09:23:00,
2013-02-21 04:28:00,23.7,5.4,30.11,NNW,340,5.8,5.8,45,0.00,CLR,OVC,0.00,WeatherDisplay:10.37,2013-02-21 09:28:00,
2013-02-21 04:33:00,23.7,5.4,30.11,NW,324,5.8,5.8,45,0.00,CLR,OVC,0.00,WeatherDisplay:10.37,2013-02-21 09:33:00,
2013-02-21 04:38:00,23.7,5.4,30.11,NW,319,4.6,4.6,45,0.00,CLR,OVC,0.00,WeatherDisplay:10.37,2013-02-21 09:38:00,
2013-02-21 04:43:00,23.7,5.4,30.11,WNW,287,3.5,3.5,45,0.00,CLR,OVC,0.00,WeatherDisplay:10.37,2013-02-21 09:43:00,
2013-02-21 04:48:00,23.7,5.4,30.11,NW,312,6.9,6.9,45,0.00,CLR,OVC,0.00,WeatherDisplay:10.37,2013-02-21 09:48:00,
2013-02-21 04:53:00,23.7,5.4,30.11,NNW,340,4.6,4.6,45,0.00,CLR,OVC,0.00,WeatherDisplay:10.37,2013-02-21 09:53:00,
2013-02-21 04:58:00,23.5,5.3,30.11,NW,326,6.7,6.7,45,0.00,CLR,OVC,0.00,WeatherDisplay:10.37,2013-02-21 09:58:00,
2013-02-21 05:03:00,23.5,5.3,30.11,West,262,6.9,6.9,45,0.00,CLR,OVC,0.00,WeatherDisplay:10.37,2013-02-21 10:03:00,
2013-02-21 05:08:00,23.5,5.3,30.11,NNW,330,4.6,5.3,45,0.00,CLR,OVC,0.00,WeatherDisplay:10.37,2013-02-21 10:08:00,
2013-02-21 05:13:00,23.5,5.3,30.14,West,276,6.9,6.9,45,0.00,CLR,OVC,0.00,WeatherDisplay:10.37,2013-02-21 10:13:00,
2013-02-21 05:18:00,23.5,5.3,30.14,NW,312,6.9,6.9,45,0.00,CLR,OVC,0.00,WeatherDisplay:10.37,2013-02-21 10:18:00,
2013-02-21 05:23:00,23.5,5.3,30.14,NW,304,6.9,6.9,45,0.00,CLR,OVC,0.00,WeatherDisplay:10.37,2013-02-21 10:23:00,
2013-02-21 05:28:00,23.5,5.3,30.11,NW,317,10.4,10.4,45,0.00,CLR,OVC,0.00,WeatherDisplay:10.37,2013-02-21 10:28:00,
2013-02-21 05:33:00,23.5,5.3,30.11,NNW,328,6.9,6.9,45,0.00,CLR,OVC,0.00,WeatherDisplay:10.37,2013-02-21 10:33:00,
2013-02-21 05:38:00,23.5,5.3,30.11,NNW,328,9.2,9.2,45,0.00,CLR,OVC,0.00,WeatherDisplay:10.37,2013-02-21 10:38:00,
2013-02-21 05:43:00,23.5,5.3,30.11,NW,312,6.9,6.9,45,0.00,CLR,OVC,0.00,WeatherDisplay:10.37,2013-02-21 10:43:00,
2013-02-21 05:48:00,23.5,5.3,30.11,NW,316,5.8,5.8,45,0.00,CLR,OVC,0.00,WeatherDisplay:10.37,2013-02-21 10:48:00,
2013-02-21 05:53:00,23.4,5.1,30.11,WNW,302,9.2,9.2,45,0.00,CLR,OVC,0.00,WeatherDisplay:10.37,2013-02-21 10:53:00,
2013-02-21 05:58:00,23.4,5.1,30.14,NW,310,5.8,5.8,45,0.00,CLR,OVC,0.00,WeatherDisplay:10.37,2013-02-21 10:58:00,
2013-02-21 06:03:00,23.4,5.1,30.14,NNW,329,6.9,6.9,45,0.00,CLR,OVC,0.00,WeatherDisplay:10.37,2013-02-21 11:03:00,
2013-02-21 06:08:00,23.4,5.6,30.14,NW,315,6.9,6.9,46,0.00,CLR,OVC,0.00,WeatherDisplay:10.37,2013-02-21 11:08:00,
2013-02-21 06:13:00,23.4,5.6,30.14,West,281,6.9,6.9,46,0.00,CLR,OVC,0.00,WeatherDisplay:10.37,2013-02-21 11:13:00,
2013-02-21 06:18:00,23.4,5.6,30.14,NNW,327,6.9,6.9,46,0.00,CLR,OVC,0.00,WeatherDisplay:10.37,2013-02-21 11:18:00,
2013-02-21 06:23:00,23.4,5.6,30.14,NW,313,4.6,4.6,46,0.00,CLR,OVC,0.00,WeatherDisplay:10.37,2013-02-21 11:23:00,
2013-02-21 06:28:00,23.4,5.6,30.14,NW,322,3.5,4.3,46,0.00,CLR,OVC,0.00,WeatherDisplay:10.37,2013-02-21 11:28:00,
2013-02-21 06:33:00,23.4,5.6,30.14,NNW,344,6.9,6.9,46,0.00,CLR,OVC,0.00,WeatherDisplay:10.37,2013-02-21 11:33:00,
2013-02-21 06:38:00,23.4,5.6,30.14,NW,310,7.2,7.2,46,0.00,CLR,OVC,0.00,WeatherDisplay:10.37,2013-02-21 11:38:00,
2013-02-21 06:43:00,23.5,5.8,30.14,NW,316,9.3,9.3,46,0.00,CLR,OVC,0.00,WeatherDisplay:10.37,2013-02-21 11:43:00,
2013-02-21 06:48:00,23.5,5.8,30.14,NW,307,11.5,11.5,46,0.00,CLR,OVC,0.00,WeatherDisplay:10.37,2013-02-21 11:48:00,
2013-02-21 06:53:00,23.5,5.8,30.14,NNW,335,6.9,6.9,46,0.00,CLR,OVC,0.00,WeatherDisplay:10.37,2013-02-21 11:53:00,
2013-02-21 06:58:00,23.5,5.3,30.14,NW,305,6.9,6.9,45,0.00,CLR,OVC,0.00,WeatherDisplay:10.37,2013-02-21 11:58:00,
2013-02-21 07:03:00,23.5,5.3,30.14,NW,306,9.2,9.2,45,0.00,SCT,OVC,0.00,WeatherDisplay:10.37,2013-02-21 12:03:00,
2013-02-21 07:08:00,23.7,5.4,30.14,WNW,303,12.7,12.7,45,0.00,SCT,OVC,0.00,WeatherDisplay:10.37,2013-02-21 12:08:00,
2013-02-21 07:13:00,23.7,5.4,30.14,WNW,300,9.2,9.2,45,0.00,SCT,OVC,0.00,WeatherDisplay:10.37,2013-02-21 12:13:00,
2013-02-21 07:18:00,23.9,5.6,30.14,WNW,303,10.0,10.0,45,0.00,SCT,OVC,0.00,WeatherDisplay:10.37,2013-02-21 12:18:00,
2013-02-21 07:23:00,24.1,5.8,30.14,NW,305,17.7,17.7,45,0.00,SCT,OVC,0.00,WeatherDisplay:10.37,2013-02-21 12:23:00,
2013-02-21 07:28:00,24.3,5.9,30.14,NNW,341,10.4,10.4,45,0.00,SCT,OVC,0.00,WeatherDisplay:10.37,2013-02-21 12:28:00,
2013-02-21 07:33:00,24.4,6.1,30.14,NNW,328,8.1,8.1,45,0.00,SCT,OVC,0.00,WeatherDisplay:10.37,2013-02-21 12:33:00,
2013-02-21 07:38:00,24.4,6.1,30.14,NW,309,9.2,9.2,45,0.00,SCT,OVC,0.00,WeatherDisplay:10.37,2013-02-21 12:38:00,
2013-02-21 07:43:00,24.8,6.4,30.14,WNW,294,10.4,10.4,45,0.00,SCT,OVC,0.00,WeatherDisplay:10.37,2013-02-21 12:43:00,
2013-02-21 07:48:00,25.0,6.1,30.14,North,357,9.2,9.2,44,0.00,SCT,OVC,0.00,WeatherDisplay:10.37,2013-02-21 12:48:00,
2013-02-21 07:53:00,25.3,6.4,30.14,WNW,298,9.2,9.2,44,0.00,SCT,OVC,0.00,WeatherDisplay:10.37,2013-02-21 12:53:00,
2013-02-21 07:58:00,25.7,6.8,30.17,NW,304,12.7,12.7,44,0.00,SCT,OVC,0.00,WeatherDisplay:10.37,2013-02-21 12:58:00,
2013-02-21 08:03:00,25.9,6.9,30.17,WNW,297,12.7,12.7,44,0.00,FEW,OVC,0.00,WeatherDisplay:10.37,2013-02-21 13:03:00,
2013-02-21 08:08:00,26.1,7.1,30.17,WNW,302,11.5,11.5,44,0.00,FEW,OVC,0.00,WeatherDisplay:10.37,2013-02-21 13:08:00,
2013-02-21 08:13:00,26.1,7.1,30.17,WNW,300,9.5,9.5,44,0.00,FEW,OVC,0.00,WeatherDisplay:10.37,2013-02-21 13:13:00,
2013-02-21 08:18:00,26.2,7.3,30.17,WNW,285,10.4,10.4,44,0.00,FEW,OVC,0.00,WeatherDisplay:10.37,2013-02-21 13:18:00,
2013-02-21 08:23:00,26.6,7.6,30.17,WNW,289,9.2,9.2,44,0.00,FEW,OVC,0.00,WeatherDisplay:10.37,2013-02-21 13:23:00,
2013-02-21 08:28:00,26.8,7.8,30.17,North,5,5.8,5.8,44,0.00,FEW,OVC,0.00,WeatherDisplay:10.37,2013-02-21 13:28:00,
2013-02-21 08:35:00,27.0,6.9,30.17,NW,304,11.5,11.5,42,0.00,FEW,OVC,0.00,WeatherDisplay:10.37,2013-02-21 13:35:00,
2013-02-21 08:40:00,27.0,6.9,30.17,NW,307,11.5,11.5,42,0.00,FEW,OVC,0.00,WeatherDisplay:10.37,2013-02-21 13:40:00,
2013-02-21 08:45:00,27.0,6.9,30.17,WNW,303,11.5,11.5,42,0.00,FEW,OVC,0.00,WeatherDisplay:10.37,2013-02-21 13:45:00,
2013-02-21 08:50:00,27.1,7.0,30.17,NW,326,12.7,12.7,42,0.00,FEW,OVC,0.00,WeatherDisplay:10.37,2013-02-21 13:50:00,
2013-02-21 08:55:00,27.7,7.5,30.17,NW,309,11.5,11.5,42,0.00,FEW,OVC,0.00,WeatherDisplay:10.37,2013-02-21 13:55:00,
2013-02-21 09:00:00,27.7,7.0,30.17,NNW,337,13.8,13.8,41,0.00,FEW,OVC,0.00,WeatherDisplay:10.37,2013-02-21 14:00:00,
2013-02-21 09:05:00,27.7,7.0,30.17,WNW,294,10.4,10.4,41,0.00,FEW,OVC,0.00,WeatherDisplay:10.37,2013-02-21 14:05:00,
2013-02-21 09:10:00,27.9,7.2,30.17,NW,317,9.2,9.2,41,0.00,FEW,OVC,0.00,WeatherDisplay:10.37,2013-02-21 14:10:00,
2013-02-21 09:15:00,27.9,7.2,30.17,WSW,254,12.7,12.7,41,0.00,FEW,OVC,0.00,WeatherDisplay:10.37,2013-02-21 14:15:00,
2013-02-21 09:20:00,27.9,7.2,30.17,WNW,287,12.7,12.7,41,0.00,FEW,OVC,0.00,WeatherDisplay:10.37,2013-02-21 14:20:00,
2013-02-21 09:25:00,28.0,7.3,30.17,NW,316,12.7,12.7,41,0.00,FEW,OVC,0.00,WeatherDisplay:10.37,2013-02-21 14:25:00,
2013-02-21 09:30:00,28.2,7.5,30.17,West,268,6.9,6.9,41,0.00,FEW,OVC,0.00,WeatherDisplay:10.37,2013-02-21 14:30:00,
2013-02-21 09:35:00,28.8,7.4,30.17,NW,311,17.3,17.3,40,0.00,FEW,OVC,0.00,WeatherDisplay:10.37,2013-02-21 14:35:00,
2013-02-21 09:40:00,28.9,7.6,30.17,NW,312,12.7,12.7,40,0.00,FEW,OVC,0.00,WeatherDisplay:10.37,2013-02-21 14:40:00,
2013-02-21 09:45:00,29.1,8.3,30.17,North,353,12.7,12.7,41,0.00,FEW,OVC,0.00,WeatherDisplay:10.37,2013-02-21 14:45:00,
2013-02-21 09:50:00,29.3,7.9,30.17,NNW,338,9.2,9.2,40,0.00,FEW,OVC,0.00,WeatherDisplay:10.37,2013-02-21 14:50:00,
2013-02-21 09:55:00,29.5,8.1,30.17,NW,307,10.4,10.4,40,0.00,FEW,OVC,0.00,WeatherDisplay:10.37,2013-02-21 14:55:00,
2013-02-21 10:01:00,30.2,8.7,30.17,NNW,337,15.0,15.0,40,0.00,SCT,OVC,0.00,WeatherDisplay:10.37,2013-02-21 15:01:00,
2013-02-21 10:06:00,30.2,8.7,30.17,NW,323,12.7,12.7,40,0.00,SCT,OVC,0.00,WeatherDisplay:10.37,2013-02-21 15:06:00,
2013-02-21 10:11:00,30.0,8.6,30.17,NNW,342,12.7,12.7,40,0.00,SCT,OVC,0.00,WeatherDisplay:10.37,2013-02-21 15:11:00,
2013-02-21 10:16:00,30.0,8.6,30.17,NW,326,13.8,13.8,40,0.00,SCT,OVC,0.00,WeatherDisplay:10.37,2013-02-21 15:16:00,
2013-02-21 10:21:00,30.2,8.7,30.17,NW,325,12.7,12.7,40,0.00,SCT,OVC,0.00,WeatherDisplay:10.37,2013-02-21 15:21:00,
2013-02-21 10:26:00,30.2,8.7,30.17,NNW,329,10.4,10.4,40,0.00,SCT,OVC,0.00,WeatherDisplay:10.37,2013-02-21 15:26:00,
2013-02-21 10:31:00,30.6,8.5,30.17,WNW,286,9.2,9.2,39,0.00,SCT,OVC,0.00,WeatherDisplay:10.37,2013-02-21 15:31:00,
2013-02-21 10:37:00,30.6,8.5,30.17,WNW,303,17.3,17.3,39,0.00,SCT,OVC,0.00,WeatherDisplay:10.37,2013-02-21 15:37:00,
2013-02-21 10:42:00,30.2,8.7,30.17,North,353,12.7,12.7,40,0.00,SCT,OVC,0.00,WeatherDisplay:10.37,2013-02-21 15:42:00,
2013-02-21 10:47:00,30.6,9.1,30.17,North,353,6.9,6.9,40,0.00,SCT,OVC,0.00,WeatherDisplay:10.37,2013-02-21 15:47:00,
2013-02-21 10:52:00,30.9,8.8,30.17,NW,321,11.5,11.5,39,0.00,SCT,OVC,0.00,WeatherDisplay:10.37,2013-02-21 15:52:00,
2013-02-21 10:57:00,30.9,8.8,30.17,NW,305,11.5,11.5,39,0.00,SCT,OVC,0.00,WeatherDisplay:10.37,2013-02-21 15:57:00,
2013-02-21 11:02:00,30.9,9.4,30.17,NNW,346,6.9,6.9,40,0.00,SCT,OVC,0.00,WeatherDisplay:10.37,2013-02-21 16:02:00,
2013-02-21 11:07:00,30.9,8.8,30.17,NW,317,9.2,9.2,39,0.00,SCT,OVC,0.00,WeatherDisplay:10.37,2013-02-21 16:07:00,
2013-02-21 11:12:00,31.1,9.0,30.17,North,10,12.7,12.7,39,0.00,SCT,OVC,0.00,WeatherDisplay:10.37,2013-02-21 16:12:00,
2013-02-21 11:17:00,31.1,9.6,30.17,NW,324,15.0,15.0,40,0.00,SCT,OVC,0.00,WeatherDisplay:10.37,2013-02-21 16:17:00,
2013-02-21 11:22:00,31.1,9.0,30.17,North,357,10.4,10.4,39,0.00,SCT,OVC,0.00,WeatherDisplay:10.37,2013-02-21 16:22:00,
2013-02-21 11:27:00,31.1,9.6,30.17,West,266,8.1,8.1,40,0.00,SCT,OVC,0.00,WeatherDisplay:10.37,2013-02-21 16:27:00,
2013-02-21 11:32:00,31.6,9.5,30.17,West,273,9.3,9.4,39,0.00,SCT,OVC,0.00,WeatherDisplay:10.37,2013-02-21 16:32:00,
2013-02-21 11:37:00,31.8,9.6,30.17,WNW,302,12.7,12.7,39,0.00,SCT,OVC,0.00,WeatherDisplay:10.37,2013-02-21 16:37:00,
2013-02-21 11:43:00,32.0,9.8,30.17,NNW,339,9.2,9.2,39,0.00,SCT,OVC,0.00,WeatherDisplay:10.37,2013-02-21 16:43:00,
2013-02-21 11:48:00,32.4,10.1,30.17,NNW,327,11.5,11.5,39,0.00,SCT,OVC,0.00,WeatherDisplay:10.37,2013-02-21 16:48:00,
2013-02-21 11:53:00,33.1,10.8,30.17,NW,312,11.5,11.5,39,0.00,SCT,OVC,0.00,WeatherDisplay:10.37,2013-02-21 16:53:00,
2013-02-21 11:58:00,33.3,10.9,30.17,WNW,291,14.1,14.1,39,0.00,SCT,OVC,0.00,WeatherDisplay:10.37,2013-02-21 16:58:00,
2013-02-21 12:03:00,33.3,10.9,30.17,NW,311,8.7,8.7,39,0.00,SCT,OVC,0.00,WeatherDisplay:10.37,2013-02-21 17:03:00,
2013-02-21 12:08:00,33.8,10.8,30.17,WSW,254,7.7,7.7,38,0.00,SCT,OVC,0.00,WeatherDisplay:10.37,2013-02-21 17:08:00,
2013-02-21 12:13:00,34.0,11.0,30.17,WNW,284,12.7,12.7,38,0.00,SCT,OVC,0.00,WeatherDisplay:10.37,2013-02-21 17:13:00,
2013-02-21 12:18:00,34.5,11.5,30.17,NW,308,9.2,9.2,38,0.00,SCT,OVC,0.00,WeatherDisplay:10.37,2013-02-21 17:18:00,
2013-02-21 12:23:00,34.5,11.5,30.17,NNW,342,9.2,9.2,38,0.00,SCT,OVC,0.00,WeatherDisplay:10.37,2013-02-21 17:23:00,
2013-02-21 12:28:00,34.5,11.5,30.17,NNW,348,9.2,9.2,38,0.00,SCT,OVC,0.00,WeatherDisplay:10.37,2013-02-21 17:28:00,
2013-02-21 12:33:00,34.5,10.9,30.17,NW,317,6.9,6.9,37,0.00,SCT,OVC,0.00,WeatherDisplay:10.37,2013-02-21 17:33:00,
2013-02-21 12:38:00,34.3,11.3,30.17,WNW,295,8.1,8.1,38,0.00,SCT,OVC,0.00,WeatherDisplay:10.37,2013-02-21 17:38:00,
2013-02-21 12:43:00,34.5,11.5,30.14,WNW,299,7.2,7.2,38,0.00,SCT,OVC,0.00,WeatherDisplay:10.37,2013-02-21 17:43:00,
2013-02-21 12:48:00,34.7,11.6,30.14,WNW,291,11.5,11.5,38,0.00,SCT,OVC,0.00,WeatherDisplay:10.37,2013-02-21 17:48:00,
2013-02-21 12:53:00,34.7,11.6,30.14,NNW,332,12.7,12.7,38,0.00,SCT,OVC,0.00,WeatherDisplay:10.37,2013-02-21 17:53:00,
2013-02-21 12:58:00,34.5,10.9,30.14,North,353,10.4,10.4,37,0.00,SCT,OVC,0.00,WeatherDisplay:10.37,2013-02-21 17:58:00,
2013-02-21 13:03:00,34.3,10.7,30.17,North,4,15.0,15.0,37,0.00,SCT,OVC,0.00,WeatherDisplay:10.37,2013-02-21 18:03:00,
2013-02-21 13:08:00,34.3,10.7,30.17,NW,309,16.1,16.1,37,0.00,SCT,OVC,0.00,WeatherDisplay:10.37,2013-02-21 18:08:00,
2013-02-21 13:13:00,34.2,10.6,30.17,NW,304,11.5,11.5,37,0.00,SCT,OVC,0.00,WeatherDisplay:10.37,2013-02-21 18:13:00,
2013-02-21 13:18:00,33.8,10.8,30.14,NNW,329,10.4,10.4,38,0.00,SCT,OVC,0.00,WeatherDisplay:10.37,2013-02-21 18:18:00,
2013-02-21 13:23:00,34.0,10.4,30.14,NNW,328,11.5,11.5,37,0.00,SCT,OVC,0.00,WeatherDisplay:10.37,2013-02-21 18:23:00,
2013-02-21 13:28:00,33.8,10.2,30.14,NW,321,15.0,15.0,37,0.00,SCT,OVC,0.00,WeatherDisplay:10.37,2013-02-21 18:28:00,
2013-02-21 13:33:00,33.8,10.8,30.14,NNW,337,12.1,12.1,38,0.00,SCT,OVC,0.00,WeatherDisplay:10.37,2013-02-21 18:33:00,
2013-02-21 13:38:00,34.3,11.3,30.14,NNW,334,14.6,14.6,38,0.00,SCT,OVC,0.00,WeatherDisplay:10.37,2013-02-21 18:38:00,
2013-02-21 13:43:00,34.7,11.6,30.14,NW,319,12.7,12.7,38,0.00,SCT,OVC,0.00,WeatherDisplay:10.37,2013-02-21 18:43:00,
2013-02-21 13:48:00,34.5,10.9,30.14,NW,308,12.7,12.7,37,0.00,SCT,OVC,0.00,WeatherDisplay:10.37,2013-02-21 18:48:00,
2013-02-21 13:53:00,34.5,10.9,30.14,NNW,341,15.0,15.0,37,0.00,SCT,OVC,0.00,WeatherDisplay:10.37,2013-02-21 18:53:00,
2013-02-21 13:58:00,34.7,11.0,30.14,NW,326,12.7,12.7,37,0.00,SCT,OVC,0.00,WeatherDisplay:10.37,2013-02-21 18:58:00,
2013-02-21 14:03:00,35.2,11.5,30.14,NW,320,9.2,9.2,37,0.00,SCT,OVC,0.00,WeatherDisplay:10.37,2013-02-21 19:03:00,
2013-02-21 14:08:00,35.8,12.0,30.14,NNE,17,15.0,15.0,37,0.00,SCT,OVC,0.00,WeatherDisplay:10.37,2013-02-21 19:08:00,
2013-02-21 14:13:00,36.0,11.6,30.14,NW,306,15.0,15.0,36,0.00,SCT,OVC,0.00,WeatherDisplay:10.37,2013-02-21 19:13:00,
2013-02-21 14:18:00,35.8,12.0,30.14,NW,325,12.7,12.7,37,0.00,SCT,OVC,0.00,WeatherDisplay:10.37,2013-02-21 19:18:00,
2013-02-21 14:23:00,36.1,12.3,30.14,WNW,298,12.7,12.7,37,0.00,SCT,OVC,0.00,WeatherDisplay:10.37,2013-02-21 19:23:00,
2013-02-21 14:28:00,36.1,11.7,30.14,NNW,339,10.4,10.4,36,0.00,SCT,OVC,0.00,WeatherDisplay:10.37,2013-02-21 19:28:00,
2013-02-21 14:33:00,36.3,11.9,30.14,West,262,16.1,16.1,36,0.00,SCT,OVC,0.00,WeatherDisplay:10.37,2013-02-21 19:33:00,
2013-02-21 14:38:00,36.5,12.7,30.14,WNW,289,9.2,9.2,37,0.00,SCT,OVC,0.00,WeatherDisplay:10.37,2013-02-21 19:38:00,
2013-02-21 14:43:00,36.7,12.2,30.14,North,353,9.2,9.2,36,0.00,SCT,OVC,0.00,WeatherDisplay:10.37,2013-02-21 19:43:00,
2013-02-21 14:48:00,36.7,12.2,30.14,NNW,336,5.8,5.8,36,0.00,SCT,OVC,0.00,WeatherDisplay:10.37,2013-02-21 19:48:00,
2013-02-21 14:53:00,36.9,12.4,30.14,NNW,339,12.1,12.1,36,0.00,SCT,OVC,0.00,WeatherDisplay:10.37,2013-02-21 19:53:00,
2013-02-21 14:58:00,36.7,12.2,30.14,NW,322,9.2,9.2,36,0.00,SCT,OVC,0.00,WeatherDisplay:10.37,2013-02-21 19:58:00,
2013-02-21 15:03:00,36.7,12.2,30.14,NW,318,12.7,12.7,36,0.00,SCT,OVC,0.00,WeatherDisplay:10.37,2013-02-21 20:03:00,
2013-02-21 15:08:00,36.7,12.2,30.14,NNW,339,10.4,10.4,36,0.00,SCT,OVC,0.00,WeatherDisplay:10.37,2013-02-21 20:08:00,
2013-02-21 15:13:00,36.7,12.2,30.14,North,357,13.8,13.8,36,0.00,SCT,OVC,0.00,WeatherDisplay:10.37,2013-02-21 20:13:00,
2013-02-21 15:18:00,36.7,12.2,30.14,NW,325,10.4,10.4,36,0.00,SCT,OVC,0.00,WeatherDisplay:10.37,2013-02-21 20:18:00,
2013-02-21 15:23:00,36.9,12.4,30.14,NNW,336,9.2,9.2,36,0.00,SCT,OVC,0.00,WeatherDisplay:10.37,2013-02-21 20:23:00,
2013-02-21 15:28:00,36.7,12.2,30.14,NW,307,12.7,12.7,36,0.00,SCT,OVC,0.00,WeatherDisplay:10.37,2013-02-21 20:28:00,
2013-02-21 15:33:00,36.7,12.2,30.14,NNW,343,12.1,12.1,36,0.00,SCT,OVC,0.00,WeatherDisplay:10.37,2013-02-21 20:33:00,
2013-02-21 15:38:00,36.7,12.2,30.14,NW,304,11.5,11.5,36,0.00,SCT,OVC,0.00,WeatherDisplay:10.37,2013-02-21 20:38:00,
2013-02-21 15:43:00,36.7,12.2,30.14,NW,321,17.3,17.3,36,0.00,SCT,OVC,0.00,WeatherDisplay:10.37,2013-02-21 20:43:00,
2013-02-21 15:48:00,36.9,11.7,30.14,NW,314,16.1,16.1,35,0.00,SCT,OVC,0.00,WeatherDisplay:10.37,2013-02-21 20:48:00,
2013-02-21 15:53:00,36.5,11.4,30.14,NW,307,12.7,12.7,35,0.00,SCT,OVC,0.00,WeatherDisplay:10.37,2013-02-21 20:53:00,
2013-02-21 15:58:00,36.5,12.0,30.17,NNE,17,9.2,9.2,36,0.00,SCT,OVC,0.00,WeatherDisplay:10.37,2013-02-21 20:58:00,
2013-02-21 16:03:00,36.3,11.2,30.17,NW,324,9.2,9.2,35,0.00,FEW,OVC,0.00,WeatherDisplay:10.37,2013-02-21 21:03:00,
2013-02-21 16:08:00,36.5,11.4,30.17,NNW,344,10.4,10.4,35,0.00,FEW,OVC,0.00,WeatherDisplay:10.37,2013-02-21 21:08:00,
2013-02-21 16:13:00,36.5,11.4,30.17,North,0,11.5,11.5,35,0.00,FEW,OVC,0.00,WeatherDisplay:10.37,2013-02-21 21:13:00,
2013-02-21 16:18:00,36.3,11.2,30.17,NNW,333,9.2,9.2,35,0.00,FEW,OVC,0.00,WeatherDisplay:10.37,2013-02-21 21:18:00,
2013-02-21 16:23:00,36.1,11.1,30.17,North,357,6.9,6.9,35,0.00,FEW,OVC,0.00,WeatherDisplay:10.37,2013-02-21 21:23:00,
2013-02-21 16:28:00,36.0,10.9,30.17,North,357,12.7,12.7,35,0.00,FEW,OVC,0.00,WeatherDisplay:10.37,2013-02-21 21:28:00,
2013-02-21 16:33:00,35.8,10.8,30.17,North,357,11.5,11.5,35,0.00,FEW,OVC,0.00,WeatherDisplay:10.37,2013-02-21 21:33:00,
2013-02-21 16:38:00,35.6,10.6,30.17,North,6,6.9,6.9,35,0.00,FEW,OVC,0.00,WeatherDisplay:10.37,2013-02-21 21:38:00,
2013-02-21 16:43:00,35.4,11.1,30.14,NNW,338,13.8,13.8,36,0.00,FEW,OVC,0.00,WeatherDisplay:10.37,2013-02-21 21:43:00,
2013-02-21 16:48:00,35.2,10.9,30.14,NNW,345,6.9,6.9,36,0.00,FEW,OVC,0.00,WeatherDisplay:10.37,2013-02-21 21:48:00,
2013-02-21 16:53:00,35.2,10.9,30.14,North,357,9.2,9.2,36,0.00,FEW,OVC,0.00,WeatherDisplay:10.37,2013-02-21 21:53:00,
2013-02-21 16:58:00,35.1,10.7,30.17,NNW,333,6.9,6.9,36,0.00,FEW,OVC,0.00,WeatherDisplay:10.37,2013-02-21 21:58:00,
2013-02-21 17:03:00,35.1,10.7,30.17,NNW,327,13.8,13.8,36,0.00,FEW,OVC,0.00,WeatherDisplay:10.37,2013-02-21 22:03:00,
2013-02-21 17:08:00,34.9,10.6,30.17,WNW,297,8.2,8.2,36,0.00,FEW,OVC,0.00,WeatherDisplay:10.37,2013-02-21 22:08:00,
2013-02-21 17:13:00,34.7,10.4,30.17,West,274,11.5,11.5,36,0.00,FEW,OVC,0.00,WeatherDisplay:10.37,2013-02-21 22:13:00,
2013-02-21 17:18:00,34.7,10.4,30.17,NW,314,12.7,12.7,36,0.00,FEW,OVC,0.00,WeatherDisplay:10.37,2013-02-21 22:18:00,
2013-02-21 17:23:00,34.5,10.3,30.17,NNW,328,6.9,6.9,36,0.00,FEW,OVC,0.00,WeatherDisplay:10.37,2013-02-21 22:23:00,
2013-02-21 17:28:00,34.3,10.1,30.17,NNW,328,11.5,11.5,36,0.00,FEW,OVC,0.00,WeatherDisplay:10.37,2013-02-21 22:28:00,
2013-02-21 17:33:00,34.3,10.1,30.17,WNW,300,8.1,8.1,36,0.00,FEW,OVC,0.00,WeatherDisplay:10.37,2013-02-21 22:33:00,
2013-02-21 17:38:00,34.2,9.9,30.17,NW,323,9.2,9.2,36,0.00,FEW,OVC,0.00,WeatherDisplay:10.37,2013-02-21 22:38:00,
2013-02-21 17:43:00,34.0,9.8,30.20,WNW,298,12.7,12.7,36,0.00,FEW,OVC,0.00,WeatherDisplay:10.37,2013-02-21 22:43:00,
2013-02-21 17:48:00,34.0,9.8,30.20,WNW,285,5.8,5.8,36,0.00,FEW,OVC,0.00,WeatherDisplay:10.37,2013-02-21 22:48:00,
2013-02-21 17:53:00,34.0,9.8,30.20,NW,309,10.4,10.4,36,0.00,FEW,OVC,0.00,WeatherDisplay:10.37,2013-02-21 22:53:00,
2013-02-21 17:58:00,33.8,9.6,30.20,NW,326,7.2,7.2,36,0.00,FEW,OVC,0.00,WeatherDisplay:10.37,2013-02-21 22:58:00,
2013-02-21 18:03:00,33.8,9.6,30.20,West,272,6.9,6.9,36,0.00,SKC,OVC,0.00,WeatherDisplay:10.37,2013-02-21 23:03:00,
2013-02-21 18:08:00,33.6,10.1,30.20,NNW,330,5.8,5.8,37,0.00,SKC,OVC,0.00,WeatherDisplay:10.37,2013-02-21 23:08:00,
2013-02-21 18:13:00,33.4,9.9,30.23,NW,318,4.6,4.6,37,0.00,SKC,OVC,0.00,WeatherDisplay:10.37,2013-02-21 23:13:00,
2013-02-21 18:18:00,33.3,9.8,30.23,NW,322,6.9,6.9,37,0.00,SKC,OVC,0.00,WeatherDisplay:10.37,2013-02-21 23:18:00,
2013-02-21 18:23:00,33.3,9.8,30.23,NNW,331,3.5,3.5,37,0.00,SKC,OVC,0.00,WeatherDisplay:10.37,2013-02-21 23:23:00,
2013-02-21 18:28:00,33.1,9.6,30.23,WNW,293,4.6,4.6,37,0.00,SKC,OVC,0.00,WeatherDisplay:10.37,2013-02-21 23:28:00,
2013-02-21 18:33:00,32.9,9.4,30.23,NW,308,4.6,4.6,37,0.00,SKC,OVC,0.00,WeatherDisplay:10.37,2013-02-21 23:33:00,
2013-02-21 18:38:00,32.9,10.0,30.23,NW,323,6.9,6.9,38,0.00,SKC,OVC,0.00,WeatherDisplay:10.37,2013-02-21 23:38:00,
2013-02-21 18:43:00,32.7,9.9,30.23,NW,318,4.6,4.6,38,0.00,SKC,OVC,0.00,WeatherDisplay:10.37,2013-02-21 23:43:00,
2013-02-21 18:48:00,32.7,9.9,30.23,NW,321,3.5,0.0,38,0.00,SKC,OVC,0.00,WeatherDisplay:10.37,2013-02-21 23:48:00,
2013-02-21 18:53:00,32.7,9.9,30.23,NW,320,5.8,5.8,38,0.00,SKC,OVC,0.00,WeatherDisplay:10.37,2013-02-21 23:53:00,
2013-02-21 18:58:00,32.7,9.9,30.26,NNW,335,6.9,6.9,38,0.00,SKC,OVC,0.00,WeatherDisplay:10.37,2013-02-21 23:58:00,
2013-02-21 19:03:00,32.7,9.9,30.26,NW,316,4.6,4.6,38,0.00,SKC,OVC,0.00,WeatherDisplay:10.37,2013-02-22 00:03:00,
2013-02-21 19:08:00,32.5,9.7,30.26,WSW,243,5.8,5.8,38,0.00,SKC,OVC,0.00,WeatherDisplay:10.37,2013-02-22 00:08:00,
2013-02-21 19:13:00,32.5,9.7,30.26,NNW,335,6.7,6.7,38,0.00,SKC,OVC,0.00,WeatherDisplay:10.37,2013-02-22 00:13:00,
2013-02-21 19:18:00,32.5,9.7,30.26,NW,322,8.1,8.1,38,0.00,SKC,OVC,0.00,WeatherDisplay:10.37,2013-02-22 00:18:00,
2013-02-21 19:23:00,32.5,9.7,30.26,NW,317,6.9,6.9,38,0.00,SKC,OVC,0.00,WeatherDisplay:10.37,2013-02-22 00:23:00,
2013-02-21 19:28:00,32.4,9.5,30.26,NW,322,4.6,4.6,38,0.00,SKC,OVC,0.00,WeatherDisplay:10.37,2013-02-22 00:28:00,
2013-02-21 19:33:00,32.2,10.0,30.26,NW,321,3.5,3.5,39,0.00,SKC,OVC,0.00,WeatherDisplay:10.37,2013-02-22 00:33:00,
2013-02-21 19:38:00,32.0,9.8,30.26,NNW,338,4.6,4.6,39,0.00,SKC,OVC,0.00,WeatherDisplay:10.37,2013-02-22 00:38:00,
2013-02-21 19:43:00,31.8,9.6,30.26,WNW,303,5.8,5.8,39,0.00,SKC,OVC,0.00,WeatherDisplay:10.37,2013-02-22 00:43:00,
2013-02-21 19:48:00,31.6,9.5,30.26,NW,325,5.8,5.8,39,0.00,SKC,OVC,0.00,WeatherDisplay:10.37,2013-02-22 00:48:00,
2013-02-21 19:53:00,31.6,10.0,30.26,NNW,342,6.9,6.9,40,0.00,SKC,OVC,0.00,WeatherDisplay:10.37,2013-02-22 00:53:00,
2013-02-21 19:58:00,31.6,10.0,30.26,NW,306,5.8,5.8,40,0.00,SKC,OVC,0.00,WeatherDisplay:10.37,2013-02-22 00:58:00,
2013-02-21 20:03:00,31.5,9.9,30.26,NW,314,3.5,3.5,40,0.00,SKC,OVC,0.00,WeatherDisplay:10.37,2013-02-22 01:03:00,
2013-02-21 20:08:00,31.3,10.3,30.26,WNW,294,4.6,4.6,41,0.00,SKC,OVC,0.00,WeatherDisplay:10.37,2013-02-22 01:08:00,
2013-02-21 20:13:00,31.3,10.3,30.26,NNW,331,4.6,4.6,41,0.00,SKC,OVC,0.00,WeatherDisplay:10.37,2013-02-22 01:13:00,
2013-02-21 20:18:00,31.3,10.3,30.26,NW,320,4.6,4.6,41,0.00,SKC,OVC,0.00,WeatherDisplay:10.37,2013-02-22 01:18:00,
2013-02-21 20:23:00,31.5,10.4,30.26,NW,318,5.8,5.8,41,0.00,SKC,OVC,0.00,WeatherDisplay:10.37,2013-02-22 01:23:00,
2013-02-21 20:28:00,31.3,10.3,30.26,NNW,332,5.8,5.8,41,0.00,SKC,OVC,0.00,WeatherDisplay:10.37,2013-02-22 01:28:00,
2013-02-21 20:33:00,31.3,10.3,30.26,NW,324,4.6,4.6,41,0.00,SKC,OVC,0.00,WeatherDisplay:10.37,2013-02-22 01:33:00,
2013-02-21 20:38:00,31.3,10.3,30.26,NNW,345,3.5,3.5,41,0.00,SKC,OVC,0.00,WeatherDisplay:10.37,2013-02-22 01:38:00,
2013-02-21 20:43:00,31.1,10.1,30.26,NNW,331,5.8,5.8,41,0.00,SKC,OVC,0.00,WeatherDisplay:10.37,2013-02-22 01:43:00,
2013-02-21 20:48:00,31.1,10.6,30.26,NW,311,4.6,4.6,42,0.00,SKC,OVC,0.00,WeatherDisplay:10.37,2013-02-22 01:48:00,
2013-02-21 20:53:00,30.9,10.5,30.26,NW,319,5.8,5.8,42,0.00,SKC,OVC,0.00,WeatherDisplay:10.37,2013-02-22 01:53:00,
2013-02-21 20:58:00,30.7,10.3,30.29,NNW,330,3.5,3.9,42,0.00,SKC,OVC,0.00,WeatherDisplay:10.37,2013-02-22 01:58:00,
2013-02-21 21:03:00,30.7,10.3,30.29,NW,321,3.5,3.5,42,0.00,SKC,OVC,0.00,WeatherDisplay:10.37,2013-02-22 02:03:00,
2013-02-21 21:08:00,30.6,10.2,30.29,WSW,257,6.9,6.9,42,0.00,SKC,OVC,0.00,WeatherDisplay:10.37,2013-02-22 02:08:00,
2013-02-21 21:13:00,30.6,10.7,30.29,NW,321,5.8,5.8,43,0.00,SKC,OVC,0.00,WeatherDisplay:10.37,2013-02-22 02:13:00,
2013-02-21 21:18:00,30.7,10.3,30.29,NNW,332,3.5,0.0,42,0.00,SKC,OVC,0.00,WeatherDisplay:10.37,2013-02-22 02:18:00,
2013-02-21 21:23:00,30.7,10.3,30.29,WNW,292,4.6,4.6,42,0.00,SKC,OVC,0.00,WeatherDisplay:10.37,2013-02-22 02:23:00,
2013-02-21 21:28:00,30.7,10.3,30.29,NNW,330,4.6,4.6,42,0.00,SKC,OVC,0.00,WeatherDisplay:10.37,2013-02-22 02:28:00,
2013-02-21 21:33:00,30.6,10.7,30.29,WNW,300,4.6,4.6,43,0.00,SKC,OVC,0.00,WeatherDisplay:10.37,2013-02-22 02:33:00,
2013-02-21 21:38:00,30.4,10.5,30.29,NW,306,5.8,5.8,43,0.00,SKC,OVC,0.00,WeatherDisplay:10.37,2013-02-22 02:38:00,
2013-02-21 21:43:00,30.4,10.5,30.29,NW,325,4.6,4.6,43,0.00,SKC,OVC,0.00,WeatherDisplay:10.37,2013-02-22 02:43:00,
2013-02-21 21:48:00,30.4,10.5,30.29,NW,323,4.6,4.6,43,0.00,SKC,OVC,0.00,WeatherDisplay:10.37,2013-02-22 02:48:00,
2013-02-21 21:53:00,30.2,10.4,30.29,NNW,340,5.8,5.8,43,0.00,SKC,OVC,0.00,WeatherDisplay:10.37,2013-02-22 02:53:00,
2013-02-21 21:58:00,30.2,10.4,30.29,NW,315,5.8,5.8,43,0.00,SKC,OVC,0.00,WeatherDisplay:10.37,2013-02-22 02:58:00,
2013-02-21 22:03:00,30.2,10.4,30.29,NNW,340,6.9,6.9,43,0.00,SKC,OVC,0.00,WeatherDisplay:10.37,2013-02-22 03:03:00,
2013-02-21 22:08:00,30.2,10.4,30.29,North,9,3.5,3.5,43,0.00,SKC,OVC,0.00,WeatherDisplay:10.37,2013-02-22 03:08:00,
2013-02-21 22:13:00,30.2,10.4,30.29,NNW,342,4.6,4.6,43,0.00,SKC,OVC,0.00,WeatherDisplay:10.37,2013-02-22 03:13:00,
2013-02-21 22:18:00,30.2,10.9,30.29,NE,42,4.6,4.6,44,0.00,SKC,OVC,0.00,WeatherDisplay:10.37,2013-02-22 03:18:00,
2013-02-21 22:23:00,30.0,10.7,30.29,NNE,14,4.6,4.6,44,0.00,SKC,OVC,0.00,WeatherDisplay:10.37,2013-02-22 03:23:00,
2013-02-21 22:28:00,29.8,10.5,30.29,NNW,329,5.8,5.8,44,0.00,SKC,OVC,0.00,WeatherDisplay:10.37,2013-02-22 03:28:00,
2013-02-21 22:33:00,29.8,10.5,30.29,WNW,298,4.6,4.6,44,0.00,SKC,OVC,0.00,WeatherDisplay:10.37,2013-02-22 03:33:00,
2013-02-21 22:38:00,29.7,10.4,30.29,NNW,328,5.8,5.8,44,0.00,SKC,OVC,0.00,WeatherDisplay:10.37,2013-02-22 03:38:00,
2013-02-21 22:43:00,29.8,10.5,30.29,NW,311,0.0,0.0,44,0.00,SKC,OVC,0.00,WeatherDisplay:10.37,2013-02-22 03:43:00,
2013-02-21 22:48:00,29.7,10.4,30.29,NW,306,4.1,0.0,44,0.00,SKC,OVC,0.00,WeatherDisplay:10.37,2013-02-22 03:48:00,
2013-02-21 22:53:00,29.7,10.4,30.29,NNW,336,4.6,4.6,44,0.00,SKC,OVC,0.00,WeatherDisplay:10.37,2013-02-22 03:53:00,
2013-02-21 22:58:00,29.5,10.2,30.29,NW,322,4.6,4.6,44,0.00,SKC,OVC,0.00,WeatherDisplay:10.37,2013-02-22 03:58:00,
2013-02-21 23:03:00,29.5,10.2,30.29,NNW,327,4.6,4.6,44,0.00,CLR,OVC,0.00,WeatherDisplay:10.37,2013-02-22 04:03:00,
2013-02-21 23:08:00,29.5,10.2,30.29,NW,315,5.8,5.8,44,0.00,CLR,OVC,0.00,WeatherDisplay:10.37,2013-02-22 04:08:00,
2013-02-21 23:13:00,29.5,10.2,30.32,WNW,299,4.6,4.6,44,0.00,CLR,OVC,0.00,WeatherDisplay:10.37,2013-02-22 04:13:00,
2013-02-21 23:18:00,29.5,10.2,30.32,WNW,299,0.0,0.0,44,0.00,CLR,OVC,0.00,WeatherDisplay:10.37,2013-02-22 04:18:00,
2013-02-21 23:23:00,29.5,10.2,30.32,WNW,303,0.0,0.0,44,0.00,CLR,OVC,0.00,WeatherDisplay:10.37,2013-02-22 04:23:00,
2013-02-21 23:28:00,29.5,10.7,30.32,WNW,300,3.5,0.0,45,0.00,CLR,OVC,0.00,WeatherDisplay:10.37,2013-02-22 04:28:00,
2013-02-21 23:33:00,29.5,10.7,30.32,West,263,4.6,4.6,45,0.00,CLR,OVC,0.00,WeatherDisplay:10.37,2013-02-22 04:33:00,
2013-02-21 23:38:00,29.5,10.7,30.32,North,353,5.8,5.8,45,0.00,CLR,OVC,0.00,WeatherDisplay:10.37,2013-02-22 04:38:00,
2013-02-21 23:43:00,29.3,10.6,30.32,NNW,345,4.6,4.6,45,0.00,CLR,OVC,0.00,WeatherDisplay:10.37,2013-02-22 04:43:00,
2013-02-21 23:48:00,29.1,10.4,30.32,North,0,0.0,0.0,45,0.00,CLR,OVC,0.00,WeatherDisplay:10.37,2013-02-22 04:48:00,
2013-02-21 23:53:00,28.9,10.2,30.32,North,0,0.0,0.0,45,0.00,CLR,OVC,0.00,WeatherDisplay:10.37,2013-02-22 04:53:00,
2013-02-21 23:58:00,28.9,10.2,30.32,North,350,3.5,0.0,45,0.00,CLR,OVC,0.00,WeatherDisplay:10.37,2013-02-22 04:58:00,